Time;durP1;ratioP1;P1;durP2;ratioP2;P2;SDS_P1;SDS_P2;PMS_P1;PMS_P2;Temp;Humidity;BMP_temperature;BMP_pressure;BME280_temperature;BME280_humidity;BME280_pressure;Samples;Min_cycle;Max_cycle;Signal;HPM_P1;HPM_P2
2021/11/19 00:00:49;;;;;;;11.73;7.55;;;5.50;99.90;;;;;;4935254;29;20151;-80
2021/11/19 06:00:55;;;;;;;9.55;6.18;;;3.00;99.90;;;;;;5681143;23;20498;-80
2021/11/19 06:03:23;;;;;;;8.95;5.63;;;3.00;99.90;;;;;;4942896;29;20079;-79
2021/11/19 06:05:50;;;;;;;9.40;6.00;;;2.90;99.90;;;;;;4943402;29;20081;-80
2021/11/19 06:08:21;;;;;;;9.95;6.10;;;2.90;99.90;;;;;;4943878;29;20086;-80
2021/11/19 06:10:53;;;;;;;9.60;5.95;;;2.90;99.90;;;;;;4942886;29;20056;-80
2021/11/19 06:13:26;;;;;;;9.40;6.50;;;2.90;99.90;;;;;;4925640;29;20135;-79
2021/11/19 06:16:16;;;;;;;9.75;6.25;;;2.90;99.90;;;;;;4924451;29;20092;-80
2021/11/19 06:18:49;;;;;;;10.23;5.78;;;2.90;99.90;;;;;;4924541;29;20091;-80
2021/11/19 06:21:24;;;;;;;9.98;6.25;;;2.90;99.90;;;;;;4923125;29;20431;-80
2021/11/19 06:23:55;;;;;;;10.05;6.00;;;2.90;99.90;;;;;;4925935;29;20505;-80
2021/11/19 06:26:29;;;;;;;8.82;5.97;;;2.90;99.90;;;;;;4943348;29;20146;-81
2021/11/19 06:29:04;;;;;;;9.20;6.10;;;2.80;99.90;;;;;;4944181;29;20055;-80
2021/11/19 06:31:42;;;;;;;10.98;6.85;;;2.90;99.90;;;;;;4940146;29;20304;-80
2021/11/19 06:34:09;;;;;;;9.43;6.25;;;2.90;99.90;;;;;;4923647;29;20143;-80
2021/11/19 06:36:41;;;;;;;11.27;6.22;;;3.00;99.90;;;;;;4923148;29;20074;-80
2021/11/19 06:39:10;;;;;;;12.65;6.55;;;3.00;99.90;;;;;;4923232;29;20083;-78
2021/11/19 06:41:38;;;;;;;11.68;6.30;;;3.00;99.90;;;;;;4932895;29;20079;-79
2021/11/19 06:44:08;;;;;;;10.63;6.63;;;3.00;99.90;;;;;;4942737;29;20134;-79
2021/11/19 06:46:45;;;;;;;11.05;6.72;;;3.00;99.90;;;;;;4941304;29;20083;-81
2021/11/19 06:49:13;;;;;;;10.70;6.82;;;3.00;99.90;;;;;;4937196;29;20123;-80
2021/11/19 06:51:41;;;;;;;11.00;6.28;;;3.00;99.90;;;;;;4940947;29;20051;-81
2021/11/19 06:54:09;;;;;;;10.35;6.72;;;2.90;99.90;;;;;;4944529;29;20501;-82
2021/11/19 06:56:36;;;;;;;10.82;6.55;;;2.80;99.90;;;;;;4936882;29;20072;-81
2021/11/19 06:59:06;;;;;;;10.38;6.18;;;2.70;99.90;;;;;;4931933;29;20080;-81
2021/11/19 07:01:33;;;;;;;11.13;6.90;;;2.60;99.90;;;;;;4925743;29;20216;-81
2021/11/19 07:04:04;;;;;;;10.45;6.32;;;2.50;99.90;;;;;;4923664;29;20498;-82
2021/11/19 07:06:32;;;;;;;10.88;6.18;;;2.40;99.90;;;;;;4923762;29;20165;-81
2021/11/19 07:09:00;;;;;;;10.70;6.43;;;2.40;99.90;;;;;;4930875;29;20083;-80
2021/11/19 07:11:29;;;;;;;9.52;6.20;;;2.40;99.90;;;;;;4933230;29;20111;-81
2021/11/19 07:13:56;;;;;;;9.73;6.50;;;2.40;99.90;;;;;;4946015;29;20071;-80
2021/11/19 07:16:27;;;;;;;11.10;6.53;;;2.40;99.90;;;;;;4946024;29;20130;-80
2021/11/19 07:18:56;;;;;;;10.52;6.43;;;2.50;99.90;;;;;;4947791;29;20095;-80
2021/11/19 07:21:28;;;;;;;10.55;6.38;;;2.50;99.90;;;;;;4940134;29;20090;-78
2021/11/19 07:23:58;;;;;;;11.27;6.80;;;2.60;99.90;;;;;;4944801;29;20519;-78
2021/11/19 07:26:26;;;;;;;12.35;6.75;;;2.60;99.90;;;;;;4934899;29;20466;-78
2021/11/19 07:28:54;;;;;;;10.43;6.90;;;2.70;99.90;;;;;;4941533;29;20087;-79
2021/11/19 07:31:22;;;;;;;11.85;7.03;;;2.80;99.90;;;;;;4951193;29;20130;-78
2021/11/19 07:33:51;;;;;;;12.63;7.10;;;2.80;99.90;;;;;;4932005;29;20051;-80
2021/11/19 07:36:21;;;;;;;11.00;7.25;;;2.80;99.90;;;;;;4962237;28;20079;-79
2021/11/19 07:38:50;;;;;;;14.23;7.50;;;2.90;99.90;;;;;;4951066;29;20454;-80
2021/11/19 07:41:21;;;;;;;11.98;7.10;;;2.90;99.90;;;;;;4944453;29;20055;-78
2021/11/19 07:43:48;;;;;;;10.80;6.65;;;2.90;99.90;;;;;;4946689;29;20047;-83
2021/11/19 07:46:20;;;;;;;13.82;6.88;;;2.90;99.90;;;;;;4934665;29;20059;-80
2021/11/19 07:48:49;;;;;;;13.35;7.63;;;3.00;99.90;;;;;;4942852;29;20058;-80
2021/11/19 07:51:19;;;;;;;12.18;7.00;;;3.00;99.90;;;;;;4947067;29;20091;-82
2021/11/19 07:53:51;;;;;;;11.90;7.28;;;3.10;99.90;;;;;;4934178;29;20084;-81
2021/11/19 07:56:23;;;;;;;10.48;6.80;;;3.10;99.90;;;;;;4929266;29;20470;-80
2021/11/19 07:58:50;;;;;;;11.32;7.22;;;3.10;99.90;;;;;;4928109;29;20048;-81
2021/11/19 08:01:17;;;;;;;13.10;7.72;;;3.20;99.90;;;;;;4926913;29;20090;-80
2021/11/19 08:03:44;;;;;;;14.57;8.27;;;3.20;99.90;;;;;;4922636;29;20090;-80
2021/11/19 08:06:11;;;;;;;13.90;8.13;;;3.30;99.90;;;;;;4922623;29;20108;-79
2021/11/19 08:08:40;;;;;;;11.93;7.35;;;3.30;99.90;;;;;;4925986;29;20079;-79
2021/11/19 08:11:12;;;;;;;13.20;8.13;;;3.40;99.90;;;;;;4919674;29;20059;-80
2021/11/19 08:13:40;;;;;;;13.13;8.23;;;3.40;99.90;;;;;;4919759;29;20087;-79
2021/11/19 08:16:10;;;;;;;12.13;8.10;;;3.40;99.90;;;;;;4920076;29;20134;-79
2021/11/19 08:18:45;;;;;;;13.30;8.18;;;3.40;99.90;;;;;;4930846;29;20063;-81
2021/11/19 08:21:12;;;;;;;13.85;8.52;;;3.40;99.90;;;;;;4921507;29;20076;-79
2021/11/19 08:23:44;;;;;;;15.48;9.02;;;3.50;99.90;;;;;;4920940;29;20139;-80
2021/11/19 08:26:18;;;;;;;16.20;9.13;;;3.50;99.90;;;;;;4936938;29;20151;-80
2021/11/19 08:28:47;;;;;;;17.73;9.73;;;3.50;99.90;;;;;;4937767;29;20474;-80
2021/11/19 08:31:19;;;;;;;13.98;9.30;;;3.60;99.90;;;;;;4938234;29;20087;-80
2021/11/19 08:33:48;;;;;;;15.63;9.80;;;3.60;99.90;;;;;;4937061;29;20086;-81
2021/11/19 08:36:18;;;;;;;17.17;10.52;;;3.70;99.90;;;;;;4934479;29;20102;-79
2021/11/19 08:38:45;;;;;;;18.65;10.38;;;3.70;99.90;;;;;;4918441;29;20135;-81
2021/11/19 08:41:16;;;;;;;15.18;9.70;;;3.70;99.90;;;;;;4921923;29;20116;-79
2021/11/19 08:43:47;;;;;;;18.95;10.57;;;3.80;99.90;;;;;;4920834;29;20112;-81
2021/11/19 08:46:20;;;;;;;20.27;11.30;;;3.80;99.90;;;;;;4936500;29;20135;-81
2021/11/19 08:48:49;;;;;;;17.45;10.32;;;3.90;99.90;;;;;;4933736;29;20577;-80
2021/11/19 08:51:21;;;;;;;17.92;10.15;;;4.00;99.90;;;;;;4924114;29;20058;-77
2021/11/19 08:53:50;;;;;;;15.27;9.77;;;4.10;99.90;;;;;;4933455;29;20099;-79
2021/11/19 08:56:19;;;;;;;14.55;9.52;;;4.20;99.90;;;;;;4935087;29;20084;-77
2021/11/19 08:58:47;;;;;;;15.82;8.98;;;4.30;99.90;;;;;;4935020;29;20537;-80
2021/11/19 09:01:18;;;;;;;14.70;9.40;;;4.40;99.90;;;;;;4882859;29;1097510;-77
2021/11/19 09:03:47;;;;;;;13.90;8.68;;;4.50;99.90;;;;;;4928052;29;20390;-79
2021/11/19 09:06:17;;;;;;;15.55;8.80;;;4.70;99.90;;;;;;4927773;29;20156;-79
2021/11/19 09:08:46;;;;;;;12.48;8.32;;;4.70;99.90;;;;;;4920374;29;20111;-79
2021/11/19 09:11:16;;;;;;;12.70;8.35;;;4.80;99.90;;;;;;4931910;29;20143;-81
2021/11/19 09:13:44;;;;;;;12.32;8.60;;;4.90;99.90;;;;;;4930234;29;20043;-80
2021/11/19 09:16:14;;;;;;;13.68;8.55;;;5.00;99.90;;;;;;4935110;29;20561;-78
2021/11/19 09:18:55;;;;;;;14.07;8.98;;;5.10;99.90;;;;;;4930571;29;20131;-78
2021/11/19 09:21:27;;;;;;;13.25;8.32;;;5.10;99.90;;;;;;4921574;29;20490;-80
2021/11/19 09:24:04;;;;;;;13.75;8.52;;;5.10;99.90;;;;;;4929971;29;20052;-80
2021/11/19 09:26:39;;;;;;;14.45;8.93;;;5.10;99.90;;;;;;4924145;29;20173;-82
2021/11/19 09:29:11;;;;;;;13.50;8.18;;;5.10;99.90;;;;;;4923014;29;20173;-81
2021/11/19 09:31:41;;;;;;;13.48;8.35;;;5.20;99.90;;;;;;4936566;29;20584;-78
2021/11/19 09:34:09;;;;;;;12.57;8.50;;;5.20;99.90;;;;;;4918677;29;20562;-78
2021/11/19 09:36:38;;;;;;;13.00;8.63;;;5.20;99.90;;;;;;4935392;29;20139;-79
2021/11/19 09:39:10;;;;;;;12.15;7.78;;;5.40;99.90;;;;;;4933024;29;20138;-79
2021/11/19 09:41:52;;;;;;;13.48;8.18;;;5.40;99.90;;;;;;4918837;29;20087;-80
2021/11/19 09:45:14;;;;;;;13.05;9.05;;;5.40;99.90;;;;;;4926516;29;20551;-81
2021/11/19 09:48:22;;;;;;;12.57;8.20;;;5.50;99.90;;;;;;4932309;29;20152;-80
2021/11/19 09:51:41;;;;;;;13.55;8.23;;;5.50;99.90;;;;;;4920126;29;20509;-79
2021/11/19 09:54:57;;;;;;;12.05;7.63;;;5.50;99.90;;;;;;4929740;29;20564;-79
2021/11/19 09:57:58;;;;;;;11.95;8.07;;;5.60;99.90;;;;;;4936613;29;20130;-80
2021/11/19 10:00:41;;;;;;;13.57;8.43;;;5.60;99.90;;;;;;4935737;29;20142;-77
2021/11/19 10:03:57;;;;;;;12.57;8.05;;;5.70;99.90;;;;;;4921028;29;20383;-79
2021/11/19 10:06:31;;;;;;;12.88;8.10;;;5.70;99.90;;;;;;4887328;29;20048;-79
2021/11/19 10:09:03;;;;;;;12.57;8.10;;;5.70;99.90;;;;;;4936523;29;20585;-80
2021/11/19 10:11:40;;;;;;;13.13;8.02;;;5.70;99.90;;;;;;4933856;29;20067;-80
2021/11/19 10:14:41;;;;;;;12.10;7.85;;;5.70;99.90;;;;;;4926983;29;20131;-81
2021/11/19 10:17:29;;;;;;;15.38;8.75;;;5.80;99.90;;;;;;4922637;29;20159;-78
2021/11/19 10:20:00;;;;;;;12.52;8.32;;;5.80;99.90;;;;;;4917794;29;20159;-80
2021/11/19 10:22:32;;;;;;;12.55;8.27;;;5.90;99.90;;;;;;4924433;29;20135;-78
2021/11/19 10:25:10;;;;;;;10.80;7.38;;;6.00;99.90;;;;;;4936243;29;20162;-78
2021/11/19 10:27:42;;;;;;;12.20;8.38;;;6.10;99.90;;;;;;4936578;29;20509;-80
2021/11/19 10:30:29;;;;;;;13.18;8.32;;;6.20;99.90;;;;;;4936719;29;20138;-80
2021/11/19 10:33:05;;;;;;;11.98;7.43;;;6.30;99.90;;;;;;4933253;29;20138;-79
2021/11/19 10:35:52;;;;;;;11.80;7.63;;;6.30;99.90;;;;;;4932309;29;20162;-80
2021/11/19 10:38:53;;;;;;;12.73;7.45;;;6.40;99.90;;;;;;4936771;29;20087;-79
2021/11/19 10:42:21;;;;;;;10.48;6.63;;;6.50;99.90;;;;;;4935963;29;20511;-81
2021/11/19 10:45:44;;;;;;;11.57;7.07;;;6.60;99.90;;;;;;4917510;29;20060;-81
2021/11/19 10:49:12;;;;;;;11.07;7.10;;;6.70;99.90;;;;;;4917582;29;20048;-80
2021/11/19 10:52:33;;;;;;;12.65;7.65;;;6.80;99.90;;;;;;4895712;29;20090;-80
2021/11/19 10:56:03;;;;;;;11.68;7.15;;;6.80;99.90;;;;;;4914504;29;20512;-80
2021/11/19 10:58:54;;;;;;;11.45;7.47;;;6.90;99.90;;;;;;4930566;29;20103;-78
2021/11/19 11:01:37;;;;;;;12.75;7.75;;;7.00;99.90;;;;;;4934106;29;20573;-79
2021/11/19 11:04:28;;;;;;;13.25;8.52;;;7.00;99.90;;;;;;4930702;29;20055;-79
2021/11/19 11:07:12;;;;;;;12.93;8.05;;;7.10;99.90;;;;;;4917220;29;20051;-78
2021/11/19 11:09:47;;;;;;;11.90;7.57;;;7.10;99.90;;;;;;4927419;29;20139;-78
2021/11/19 11:12:29;;;;;;;12.20;7.10;;;7.10;99.90;;;;;;4935009;29;20134;-78
2021/11/19 11:15:25;;;;;;;11.23;7.30;;;7.20;99.90;;;;;;4942216;29;20478;-78
2021/11/19 11:18:04;;;;;;;11.80;7.53;;;7.20;99.90;;;;;;4916715;29;20383;-80
2021/11/19 11:20:36;;;;;;;11.65;7.47;;;7.30;99.90;;;;;;4927243;29;20600;-76
2021/11/19 11:23:24;;;;;;;11.00;7.20;;;7.30;99.90;;;;;;4916964;29;20138;-80
2021/11/19 11:26:02;;;;;;;12.30;7.65;;;7.40;99.90;;;;;;4932731;29;20043;-80
2021/11/19 11:28:46;;;;;;;10.23;6.93;;;7.50;99.90;;;;;;4924137;29;20155;-80
2021/11/19 11:31:37;;;;;;;10.98;7.45;;;7.60;99.90;;;;;;4920231;29;20506;-81
2021/11/19 11:34:23;;;;;;;10.65;6.65;;;7.70;99.90;;;;;;4931452;29;20468;-81
2021/11/19 11:37:13;;;;;;;9.70;6.45;;;7.80;99.90;;;;;;4933640;29;20110;-84
2021/11/19 11:39:44;;;;;;;10.48;6.55;;;8.00;99.90;;;;;;4935458;29;20509;-79
2021/11/19 11:42:16;;;;;;;9.38;6.10;;;8.10;99.90;;;;;;4934799;29;20083;-80
2021/11/19 11:44:48;;;;;;;9.18;5.93;;;8.20;99.90;;;;;;4935292;29;20051;-79
2021/11/19 11:47:29;;;;;;;10.27;5.40;;;8.30;99.90;;;;;;4922993;29;20067;-79
2021/11/19 11:49:59;;;;;;;8.40;5.07;;;8.50;99.90;;;;;;4935406;29;20139;-81
2021/11/19 11:52:59;;;;;;;9.48;5.32;;;8.60;99.90;;;;;;4930839;29;20091;-79
2021/11/19 11:55:37;;;;;;;9.85;5.82;;;8.70;99.90;;;;;;4927764;29;20131;-80
2021/11/19 11:58:35;;;;;;;10.77;5.68;;;8.80;99.30;;;;;;4916903;29;20067;-80
2021/11/19 12:01:17;;;;;;;9.82;5.45;;;8.80;98.80;;;;;;4934540;29;20500;-80
2021/11/19 12:03:52;;;;;;;10.60;5.75;;;8.80;98.70;;;;;;4927952;29;20048;-79
2021/11/19 12:06:23;;;;;;;8.50;5.45;;;8.80;98.70;;;;;;4923332;29;20118;-78
2021/11/19 12:09:11;;;;;;;7.95;5.30;;;8.80;99.00;;;;;;4921041;29;20059;-78
2021/11/19 12:12:24;;;;;;;9.25;5.80;;;8.90;99.20;;;;;;4925064;29;20086;-80
2021/11/19 12:14:58;;;;;;;9.23;5.40;;;9.10;99.10;;;;;;4934913;29;20409;-79
2021/11/19 12:17:37;;;;;;;10.73;5.38;;;9.30;99.20;;;;;;4935003;29;20139;-78
2021/11/19 12:20:12;;;;;;;10.60;5.85;;;9.50;99.00;;;;;;4934977;29;20051;-77
2021/11/19 12:22:43;;;;;;;8.95;5.60;;;9.70;98.70;;;;;;4918530;29;20406;-82
2021/11/19 12:26:08;;;;;;;8.65;5.07;;;9.90;98.00;;;;;;4932326;29;20545;-81
2021/11/19 12:28:40;;;;;;;8.88;4.88;;;10.10;97.40;;;;;;4928504;29;20055;-80
2021/11/19 12:31:14;;;;;;;8.68;4.72;;;10.20;96.50;;;;;;4930313;29;20139;-80
2021/11/19 12:33:48;;;;;;;10.50;5.60;;;10.30;96.60;;;;;;4915285;29;20098;-77
2021/11/19 12:36:37;;;;;;;8.37;4.67;;;10.50;95.70;;;;;;4916048;29;20462;-80
2021/11/19 12:39:10;;;;;;;8.02;4.70;;;10.60;95.70;;;;;;4915900;29;20127;-81
2021/11/19 12:41:45;;;;;;;9.02;4.63;;;10.70;95.10;;;;;;4920480;29;20087;-80
2021/11/19 12:44:53;;;;;;;11.05;5.25;;;10.70;94.70;;;;;;4915418;29;20076;-79
2021/11/19 12:47:59;;;;;;;8.75;4.78;;;10.90;94.90;;;;;;4903392;29;20056;-80
2021/11/19 12:50:36;;;;;;;10.27;5.70;;;11.20;94.70;;;;;;4922649;29;20499;-79
2021/11/19 12:53:21;;;;;;;10.48;5.07;;;11.60;94.60;;;;;;4934646;29;20155;-78
2021/11/19 12:56:17;;;;;;;10.20;5.43;;;12.10;94.00;;;;;;4932625;29;20823;-80
2021/11/19 12:58:48;;;;;;;10.05;5.15;;;12.80;93.60;;;;;;4915302;29;20418;-81
2021/11/19 13:01:32;;;;;;;8.73;5.30;;;13.60;91.90;;;;;;4915536;29;20070;-80
2021/11/19 13:04:19;;;;;;;;;;;15.40;87.00;;;;;;4916613;29;20143;-79
2021/11/19 13:07:03;;;;;;;8.82;5.32;;;16.10;82.40;;;;;;4914060;29;19969;-79
2021/11/19 13:09:58;;;;;;;8.75;5.68;;;17.40;74.80;;;;;;4915759;29;20083;-77
2021/11/19 13:13:21;;;;;;;9.93;5.50;;;19.20;67.00;;;;;;4915706;29;20155;-78
2021/11/19 13:15:51;;;;;;;9.57;5.50;;;20.40;59.60;;;;;;4915063;29;20048;-80
2021/11/19 13:18:42;;;;;;;8.77;5.80;;;21.00;56.30;;;;;;4915347;29;20052;-79
2021/11/19 13:21:44;;;;;;;8.13;5.38;;;21.50;53.30;;;;;;4915418;29;20135;-80
2021/11/19 13:24:48;;;;;;;10.60;5.72;;;21.60;52.50;;;;;;4915496;29;20087;-80
2021/11/19 13:27:43;;;;;;;9.48;5.18;;;21.90;51.50;;;;;;4932242;29;20086;-79
2021/11/19 13:30:45;;;;;;;10.23;5.75;;;22.00;50.50;;;;;;4939306;29;20504;-77
2021/11/19 13:33:23;;;;;;;9.15;5.57;;;21.90;50.60;;;;;;4940004;29;20048;-79
2021/11/19 13:36:34;;;;;;;11.07;6.00;;;22.30;50.10;;;;;;4938577;29;20127;-79
2021/11/19 13:39:15;;;;;;;8.20;5.32;;;23.00;48.60;;;;;;4935200;29;20107;-78
2021/11/19 13:42:04;;;;;;;7.82;5.13;;;24.40;47.00;;;;;;4938463;29;20103;-77
2021/11/19 13:44:52;;;;;;;9.15;5.20;;;25.60;44.90;;;;;;4936314;29;20457;-79
2021/11/19 13:48:07;;;;;;;7.18;4.90;;;26.80;42.40;;;;;;4925541;29;20131;-79
2021/11/19 13:51:06;;;;;;;7.78;4.50;;;27.70;41.40;;;;;;4886573;29;20135;-78
2021/11/19 13:53:51;;;;;;;7.15;4.35;;;29.30;39.60;;;;;;4920182;29;20116;-76
2021/11/19 13:56:26;;;;;;;8.95;4.32;;;30.60;38.00;;;;;;4924187;29;20048;-76
2021/11/19 13:59:03;;;;;;;6.60;3.88;;;31.60;36.60;;;;;;4919141;29;20075;-77
2021/11/19 14:01:42;;;;;;;6.22;4.20;;;32.50;35.50;;;;;;4931207;29;20537;-80
2021/11/19 14:04:25;;;;;;;8.10;4.20;;;33.20;34.40;;;;;;4935603;29;20138;-77
2021/11/19 14:07:01;;;;;;;8.00;4.65;;;33.60;33.80;;;;;;4931949;29;20445;-79
2021/11/19 14:09:42;;;;;;;7.20;3.97;;;;;;;;;;4937383;29;20083;-79
2021/11/19 14:12:21;;;;;;;15.13;9.73;;;33.50;68.40;;;;;;4936456;29;20576;-80
2021/11/19 14:14:54;;;;;;;7.10;4.82;;;33.10;37.50;;;;;;4933718;29;20123;-80
2021/11/19 14:17:34;;;;;;;7.60;4.55;;;33.00;38.00;;;;;;4918038;29;20091;-80
2021/11/19 14:23:22;;;;;;;8.20;4.65;;;32.10;33.40;;;;;;4925921;29;20090;-80
2021/11/19 14:25:51;;;;;;;8.73;4.78;;;;;;;;;;4934090;29;20564;-81
2021/11/19 14:28:24;;;;;;;7.90;5.20;;;;;;;;;;4926409;29;20138;-77
2021/11/19 14:30:56;;;;;;;7.55;4.70;;;30.50;33.60;;;;;;4918675;29;20078;-78
2021/11/19 14:33:31;;;;;;;8.40;5.10;;;29.90;35.10;;;;;;4933150;29;20139;-79
2021/11/19 14:36:04;;;;;;;13.60;7.32;;;29.40;35.70;;;;;;4930800;29;20044;-80
2021/11/19 14:38:37;;;;;;;14.95;8.27;;;28.50;36.60;;;;;;4923750;29;20095;-79
2021/11/19 14:41:13;;;;;;;12.88;7.95;;;27.70;37.40;;;;;;4913836;29;20593;-78
2021/11/19 14:43:48;;;;;;;12.43;8.05;;;27.00;38.20;;;;;;4914077;29;20067;-77
2021/11/19 14:46:20;;;;;;;12.57;7.95;;;26.50;38.70;;;;;;4923033;29;20076;-79
2021/11/19 14:48:58;;;;;;;14.05;8.73;;;26.20;39.20;;;;;;4932222;29;20052;-78
2021/11/19 14:51:33;;;;;;;13.73;9.27;;;25.90;39.80;;;;;;4932351;29;20494;-81
2021/11/19 14:54:05;;;;;;;14.65;8.75;;;25.80;40.00;;;;;;4931695;29;20103;-78
2021/11/19 14:56:48;;;;;;;11.95;8.30;;;25.80;40.00;;;;;;4932143;29;20051;-77
2021/11/19 14:59:19;;;;;;;15.13;8.70;;;25.60;40.00;;;;;;4932914;29;20047;-80
2021/11/19 15:01:58;;;;;;;14.77;9.23;;;25.30;40.30;;;;;;4920197;29;20139;-78
2021/11/19 15:04:29;;;;;;;14.50;8.73;;;24.90;40.70;;;;;;4917914;29;20043;-80
2021/11/19 15:07:13;;;;;;;13.88;8.55;;;24.60;41.20;;;;;;4931410;29;20094;-80
2021/11/19 15:10:04;;;;;;;14.83;8.17;;;24.10;41.50;;;;;;4930309;29;20122;-79
2021/11/19 15:12:36;;;;;;;13.98;8.85;;;23.50;42.20;;;;;;4926328;29;20431;-78
2021/11/19 15:15:18;;;;;;;22.02;13.65;;;22.80;43.00;;;;;;4922329;29;20131;-77
2021/11/19 15:17:50;;;;;;;14.75;9.38;;;22.00;44.00;;;;;;4933931;29;20047;-76
2021/11/19 15:20:40;;;;;;;14.65;8.60;;;21.20;45.40;;;;;;4926965;29;20131;-77
2021/11/19 15:23:32;;;;;;;14.68;8.60;;;20.40;46.70;;;;;;4921205;29;20540;-77
2021/11/19 15:26:01;;;;;;;14.48;8.63;;;19.50;48.10;;;;;;4917933;29;20083;-77
2021/11/19 15:28:33;;;;;;;16.33;9.50;;;18.30;50.00;;;;;;4917181;29;20058;-78
2021/11/19 15:31:22;;;;;;;16.80;9.05;;;17.30;51.90;;;;;;4914364;29;20048;-78
2021/11/19 15:34:19;;;;;;;16.48;9.75;;;16.30;54.20;;;;;;4913183;29;20063;-81
2021/11/19 15:37:17;;;;;;;17.02;10.25;;;15.30;56.50;;;;;;4930035;29;20058;-80
2021/11/19 15:39:46;;;;;;;16.88;10.23;;;14.40;58.80;;;;;;4929066;29;20131;-79
2021/11/19 15:42:15;;;;;;;16.65;9.48;;;13.70;60.80;;;;;;4912893;29;20091;-80
2021/11/19 15:44:46;;;;;;;19.95;9.75;;;13.20;62.60;;;;;;4915978;29;20107;-77
2021/11/19 15:47:14;;;;;;;20.58;10.45;;;12.80;64.20;;;;;;4912874;29;20493;-78
2021/11/19 15:49:46;;;;;;;16.15;10.00;;;12.30;65.80;;;;;;4913327;29;20156;-79
2021/11/19 15:52:18;;;;;;;16.63;9.93;;;12.00;67.50;;;;;;4931776;29;20053;-79
2021/11/19 15:54:51;;;;;;;19.20;10.68;;;11.70;69.20;;;;;;4924629;29;20134;-78
2021/11/19 15:57:37;;;;;;;17.08;10.05;;;11.40;70.70;;;;;;4931938;29;20056;-76
2021/11/19 16:00:14;;;;;;;18.52;10.43;;;11.20;73.40;;;;;;4930843;29;20111;-79
2021/11/19 16:03:36;;;;;;;16.45;9.75;;;10.90;77.00;;;;;;4912302;29;20064;-79
2021/11/19 16:06:35;;;;;;;18.35;10.57;;;10.70;82.20;;;;;;4915601;29;20052;-79
2021/11/19 16:09:08;;;;;;;20.17;11.73;;;10.50;88.00;;;;;;4931318;29;20055;-79
2021/11/19 16:12:16;;;;;;;20.88;11.65;;;10.30;90.90;;;;;;4931023;29;20135;-79
2021/11/19 16:14:43;;;;;;;21.42;11.60;;;10.10;92.20;;;;;;4925569;29;20904;-81
2021/11/19 16:17:13;;;;;;;19.73;10.60;;;9.90;93.30;;;;;;4931402;29;20048;-79
2021/11/19 16:19:42;;;;;;;19.50;10.68;;;9.80;93.80;;;;;;4926547;29;20498;-78
2021/11/19 16:22:14;;;;;;;17.88;10.05;;;9.70;94.20;;;;;;4926993;29;20083;-81
2021/11/19 16:24:43;;;;;;;19.55;10.65;;;9.50;94.60;;;;;;4923250;29;20076;-76
2021/11/19 16:27:14;;;;;;;23.88;10.07;;;9.40;95.20;;;;;;4912577;29;20060;-77
2021/11/19 16:29:43;;;;;;;18.77;10.05;;;9.30;95.50;;;;;;4925602;29;20918;-77
2021/11/19 16:32:11;;;;;;;19.38;10.13;;;9.10;95.80;;;;;;4921248;29;20494;-76
2021/11/19 16:34:40;;;;;;;16.10;9.98;;;9.00;96.10;;;;;;4913309;29;20068;-76
2021/11/19 16:37:10;;;;;;;18.58;10.80;;;8.90;96.50;;;;;;4930483;29;20059;-78
2021/11/19 16:39:39;;;;;;;19.48;10.85;;;8.80;96.80;;;;;;4931856;29;20087;-76
2021/11/19 16:42:08;;;;;;;17.60;10.05;;;8.80;97.00;;;;;;4928763;29;20044;-77
2021/11/19 16:44:38;;;;;;;20.55;10.50;;;8.70;97.20;;;;;;4912901;29;20088;-76
2021/11/19 16:47:07;;;;;;;18.45;9.95;;;8.70;97.40;;;;;;4921721;29;20553;-76
2021/11/19 16:49:39;;;;;;;18.35;10.35;;;8.60;97.50;;;;;;4929247;29;20138;-76
2021/11/19 16:52:17;;;;;;;19.45;10.23;;;8.50;97.70;;;;;;4914920;29;20050;-77
2021/11/19 16:54:50;;;;;;;21.92;10.68;;;8.50;97.90;;;;;;4924750;29;20070;-76
2021/11/19 16:57:20;;;;;;;19.15;10.55;;;8.40;98.20;;;;;;4931132;29;20103;-76
2021/11/19 16:59:49;;;;;;;19.95;10.35;;;8.30;98.30;;;;;;4931742;29;20413;-78
2021/11/19 17:02:17;;;;;;;19.42;10.20;;;8.30;98.40;;;;;;4926058;29;20058;-79
2021/11/19 17:04:46;;;;;;;21.27;10.65;;;8.20;98.50;;;;;;4916866;29;20058;-77
2021/11/19 17:07:15;;;;;;;19.90;10.88;;;8.20;98.70;;;;;;4925262;29;20043;-76
2021/11/19 17:09:44;;;;;;;19.25;10.63;;;8.10;98.90;;;;;;4926151;29;20457;-77
2021/11/19 17:12:12;;;;;;;19.65;10.68;;;8.10;98.90;;;;;;4928957;29;20070;-79
2021/11/19 17:14:40;;;;;;;19.52;10.65;;;8.00;99.10;;;;;;4929887;29;20134;-77
2021/11/19 17:17:10;;;;;;;17.48;10.43;;;7.90;99.10;;;;;;4925364;29;20131;-77
2021/11/19 17:19:41;;;;;;;17.92;10.40;;;7.80;99.20;;;;;;4931559;29;20142;-76
2021/11/19 17:22:09;;;;;;;19.63;10.38;;;7.80;99.40;;;;;;4925813;29;20176;-76
2021/11/19 17:24:39;;;;;;;18.30;10.20;;;7.80;99.60;;;;;;4932500;29;20497;-77
2021/11/19 17:27:09;;;;;;;19.25;10.30;;;7.70;99.70;;;;;;4935169;29;20430;-76
2021/11/19 17:29:46;;;;;;;30.85;16.05;;;7.70;99.80;;;;;;4926620;29;20450;-76
2021/11/19 17:32:15;;;;;;;24.55;13.32;;;7.60;99.90;;;;;;4916231;29;20048;-77
2021/11/19 17:34:47;;;;;;;21.10;11.23;;;7.60;99.90;;;;;;4926850;29;20154;-77
2021/11/19 17:37:15;;;;;;;20.02;11.52;;;7.60;99.90;;;;;;4928634;29;20048;-76
2021/11/19 17:39:45;;;;;;;19.90;10.95;;;7.60;99.90;;;;;;4919005;29;20055;-78
2021/11/19 17:42:14;;;;;;;18.85;10.75;;;7.60;99.90;;;;;;4929650;29;20482;-77
2021/11/19 17:44:41;;;;;;;17.52;10.60;;;7.50;99.90;;;;;;4922959;29;20055;-77
2021/11/19 17:47:13;;;;;;;20.75;11.00;;;7.50;99.90;;;;;;4924727;29;20078;-77
2021/11/19 17:49:44;;;;;;;18.58;10.93;;;7.50;99.90;;;;;;4934896;29;20469;-76
2021/11/19 17:52:13;;;;;;;23.40;11.70;;;7.50;99.90;;;;;;4934596;29;20379;-78
2021/11/19 17:54:43;;;;;;;20.58;11.15;;;7.50;99.90;;;;;;4934349;29;20055;-77
2021/11/19 17:57:16;;;;;;;18.20;10.43;;;7.50;99.90;;;;;;4934278;29;20055;-77
2021/11/19 17:59:45;;;;;;;20.83;10.90;;;7.60;99.90;;;;;;4928701;29;20111;-78
2021/11/19 18:02:17;;;;;;;17.70;10.50;;;7.60;99.90;;;;;;4929488;29;20063;-78
2021/11/19 18:04:48;;;;;;;19.23;10.68;;;7.60;99.90;;;;;;4923680;29;20052;-80
2021/11/19 18:07:19;;;;;;;19.17;10.93;;;7.50;99.90;;;;;;4924911;29;20048;-79
2021/11/19 18:09:50;;;;;;;17.35;10.43;;;7.60;99.90;;;;;;4934184;29;20060;-80
2021/11/19 18:12:23;;;;;;;18.40;10.30;;;7.60;99.90;;;;;;4931977;29;20051;-78
2021/11/19 18:14:53;;;;;;;17.88;10.57;;;7.60;99.90;;;;;;4925957;29;20487;-79
2021/11/19 18:17:30;;;;;;;19.23;10.63;;;7.60;99.90;;;;;;4926772;29;20056;-81
2021/11/19 18:19:58;;;;;;;24.58;11.45;;;7.60;99.90;;;;;;4928380;29;20126;-80
2021/11/19 18:22:29;;;;;;;20.90;10.95;;;7.60;99.90;;;;;;4931477;29;20048;-78
2021/11/19 18:25:01;;;;;;;20.80;11.65;;;7.60;99.90;;;;;;4932125;29;20142;-80
2021/11/19 18:27:33;;;;;;;21.17;11.85;;;7.60;99.90;;;;;;4923222;29;20152;-78
2021/11/19 18:30:01;;;;;;;21.88;11.43;;;7.60;99.90;;;;;;4922870;29;20135;-77
2021/11/19 18:32:33;;;;;;;20.17;11.27;;;7.60;99.90;;;;;;4922000;29;20069;-78
2021/11/19 18:35:03;;;;;;;18.42;10.90;;;7.60;99.90;;;;;;4914658;29;20225;-77
2021/11/19 18:37:33;;;;;;;23.08;11.80;;;7.60;99.90;;;;;;4915111;29;20052;-77
2021/11/19 18:40:06;;;;;;;20.98;11.80;;;7.60;99.90;;;;;;4927778;29;20134;-77
2021/11/19 18:42:35;;;;;;;19.92;11.80;;;7.60;99.90;;;;;;4926834;29;20066;-77
2021/11/19 18:45:02;;;;;;;20.63;11.48;;;7.60;99.90;;;;;;4914802;29;20051;-77
2021/11/19 18:47:31;;;;;;;21.88;12.00;;;7.60;99.90;;;;;;4916691;29;20063;-76
2021/11/19 18:50:04;;;;;;;19.42;11.40;;;7.70;99.90;;;;;;4932873;29;20398;-77
2021/11/19 18:52:33;;;;;;;20.02;11.25;;;7.70;99.90;;;;;;4934135;29;20568;-76
2021/11/19 18:55:05;;;;;;;21.25;11.88;;;7.70;99.90;;;;;;4936122;29;20465;-77
2021/11/19 18:57:33;;;;;;;18.67;11.63;;;7.70;99.90;;;;;;4933909;29;20421;-77
2021/11/19 19:00:08;;;;;;;20.13;11.38;;;7.70;99.90;;;;;;4933158;29;20059;-77
2021/11/19 19:02:37;;;;;;;19.25;10.95;;;7.60;99.90;;;;;;4942640;29;20098;-77
2021/11/19 19:05:07;;;;;;;20.73;11.30;;;7.60;99.90;;;;;;4946122;29;20142;-77
2021/11/19 19:07:35;;;;;;;19.23;11.00;;;7.60;99.90;;;;;;4932327;29;20145;-80
2021/11/19 19:10:07;;;;;;;19.70;11.63;;;7.60;99.90;;;;;;4919967;29;20127;-79
2021/11/19 19:12:35;;;;;;;21.83;11.07;;;7.60;99.90;;;;;;4913692;29;20143;-77
2021/11/19 19:15:02;;;;;;;19.92;10.93;;;7.60;99.90;;;;;;4919855;29;20055;-79
2021/11/19 19:17:32;;;;;;;18.85;11.00;;;7.50;99.90;;;;;;4931273;29;20819;-77
2021/11/19 19:20:01;;;;;;;20.23;10.60;;;7.50;99.90;;;;;;4932873;29;20162;-79
2021/11/19 19:22:31;;;;;;;21.15;11.23;;;7.50;99.90;;;;;;4932006;29;20058;-78
2021/11/19 19:24:59;;;;;;;22.67;12.77;;;7.50;99.90;;;;;;4930724;29;20126;-78
2021/11/19 19:27:40;;;;;;;22.55;11.70;;;7.60;99.90;;;;;;4930913;29;20482;-79
2021/11/19 19:30:11;;;;;;;24.30;11.98;;;7.60;99.90;;;;;;4932205;29;20413;-78
2021/11/19 19:32:39;;;;;;;21.50;11.88;;;7.60;99.90;;;;;;4922087;29;20048;-78
2021/11/19 19:35:10;;;;;;;23.00;11.77;;;7.60;99.90;;;;;;4918694;29;20135;-79